createdAt,value
2024-05-09T00:00:40.944Z,10.90
2024-05-09T00:03:10.265Z,10.80
2024-05-09T00:05:40.466Z,10.80
2024-05-09T00:08:09.445Z,10.80
2024-05-09T00:10:38.775Z,10.80
2024-05-09T00:13:08.004Z,10.80
2024-05-09T00:15:35.975Z,10.80
2024-05-09T00:18:05.379Z,10.80
2024-05-09T00:20:38.282Z,10.70
2024-05-09T00:23:09.367Z,10.60
2024-05-09T00:25:37.794Z,10.50
2024-05-09T00:28:05.233Z,10.50
2024-05-09T00:30:35.418Z,10.40
2024-05-09T00:33:05.881Z,10.40
2024-05-09T00:35:33.906Z,10.30
2024-05-09T00:38:01.105Z,10.30
2024-05-09T00:40:40.357Z,10.30
2024-05-09T00:43:11.626Z,10.30
2024-05-09T00:45:39.224Z,10.30
2024-05-09T00:48:08.587Z,10.30
2024-05-09T00:50:42.188Z,10.30
2024-05-09T00:53:14.901Z,10.20
2024-05-09T00:55:42.526Z,10.10
2024-05-09T00:58:12.418Z,10.10
2024-05-09T01:00:41.455Z,9.90
2024-05-09T01:03:11.969Z,9.90
2024-05-09T01:05:40.935Z,9.70
2024-05-09T01:08:10.808Z,9.60
2024-05-09T01:10:38.306Z,9.50
2024-05-09T01:13:06.713Z,9.40
2024-05-09T01:15:35.030Z,9.40
2024-05-09T01:18:12.120Z,9.30
2024-05-09T01:20:43.213Z,9.30
2024-05-09T01:23:14.769Z,9.30
2024-05-09T01:25:43.976Z,9.30
2024-05-09T01:28:11.035Z,9.30
2024-05-09T01:30:38.671Z,9.30
2024-05-09T01:33:08.690Z,9.20
2024-05-09T01:35:37.643Z,9.20
2024-05-09T01:38:05.109Z,9.10
2024-05-09T01:40:37.728Z,9.10
2024-05-09T01:43:08.274Z,8.90
2024-05-09T01:45:35.976Z,8.90
2024-05-09T01:48:03.624Z,8.70
2024-05-09T01:53:01.061Z,8.30
2024-05-09T01:55:28.071Z,8.20
2024-05-09T01:57:54.986Z,8.10
2024-05-09T02:00:33.792Z,8.10
2024-05-09T02:03:08.976Z,8.10
2024-05-09T02:05:36.348Z,8.10
2024-05-09T02:08:04.027Z,7.90
2024-05-09T02:10:32.974Z,7.70
2024-05-09T02:13:00.616Z,7.50
2024-05-09T02:15:27.705Z,7.50
2024-05-09T02:17:54.835Z,7.40
2024-05-09T02:20:30.463Z,7.50
2024-05-09T02:23:05.022Z,7.50
2024-05-09T02:25:32.673Z,7.70
2024-05-09T02:27:59.787Z,7.60
2024-05-09T02:30:36.578Z,7.50
2024-05-09T02:33:08.320Z,7.50
2024-05-09T02:35:35.984Z,7.40
2024-05-09T02:38:03.186Z,7.30
2024-05-09T02:40:36.669Z,7.30
2024-05-09T02:43:08.732Z,7.30
2024-05-09T02:45:36.832Z,7.30
2024-05-09T02:48:04.151Z,7.30
2024-05-09T02:50:37.837Z,7.20
2024-05-09T02:53:11.242Z,7.10
2024-05-09T02:55:38.985Z,7.10
2024-05-09T02:58:10.200Z,7.00
2024-05-09T03:00:40.699Z,6.90
2024-05-09T03:03:12.492Z,6.90
2024-05-09T03:05:41.857Z,6.90
2024-05-09T03:08:09.174Z,6.80
2024-05-09T03:10:38.441Z,6.80
2024-05-09T03:13:14.796Z,6.80
2024-05-09T03:15:43.514Z,6.80
2024-05-09T03:18:11.123Z,6.70
2024-05-09T03:20:39.352Z,6.60
2024-05-09T03:23:08.809Z,6.50
2024-05-09T03:25:36.872Z,6.50
2024-05-09T03:28:04.074Z,6.60
2024-05-09T03:30:39.709Z,6.50
2024-05-09T03:33:15.571Z,6.40
2024-05-09T03:35:46.811Z,6.30
2024-05-09T03:38:14.204Z,6.30
2024-05-09T03:40:45.565Z,6.30
2024-05-09T03:43:13.716Z,6.20
2024-05-09T03:45:40.760Z,6.20
2024-05-09T03:48:08.348Z,6.20
2024-05-09T03:50:36.565Z,6.10
2024-05-09T03:53:04.576Z,6.20
2024-05-09T03:55:31.614Z,6.10
2024-05-09T03:57:58.788Z,6.10
2024-05-09T04:00:34.223Z,6.10
2024-05-09T04:03:07.278Z,6.10
2024-05-09T04:05:36.774Z,6.10
2024-05-09T04:08:03.890Z,6.20
2024-05-09T04:10:33.943Z,6.10
2024-05-09T04:13:03.187Z,6.20
2024-05-09T04:15:30.566Z,6.10
2024-05-09T04:17:57.791Z,6.20
2024-05-09T04:20:35.802Z,6.10
2024-05-09T04:23:07.199Z,6.20
2024-05-09T04:25:34.997Z,6.30
2024-05-09T04:28:01.932Z,6.20
2024-05-09T04:30:36.776Z,6.30
2024-05-09T04:33:08.631Z,6.30
2024-05-09T04:35:37.603Z,6.40
2024-05-09T04:38:05.538Z,6.50
2024-05-09T04:40:35.703Z,6.60
2024-05-09T04:43:14.174Z,6.70
2024-05-09T04:45:41.515Z,6.80
2024-05-09T04:48:08.989Z,6.80
2024-05-09T04:50:38.716Z,6.90
2024-05-09T04:53:09.895Z,6.90
2024-05-09T04:55:38.341Z,6.80
2024-05-09T04:58:08.803Z,6.80
2024-05-09T05:00:38.659Z,6.80
2024-05-09T05:03:10.273Z,6.80
2024-05-09T05:05:42.512Z,6.90
2024-05-09T05:08:14.027Z,7.00
2024-05-09T05:10:42.023Z,7.10
2024-05-09T05:13:25.174Z,7.20
2024-05-09T05:15:57.436Z,7.20
2024-05-09T05:18:26.727Z,7.40
2024-05-09T05:20:55.773Z,7.50
2024-05-09T05:23:23.759Z,7.60
2024-05-09T05:25:55.055Z,7.70
2024-05-09T05:28:22.479Z,7.80
2024-05-09T05:30:49.502Z,7.90
2024-05-09T05:33:20.033Z,7.90
2024-05-09T05:35:47.422Z,8.10
2024-05-09T05:38:14.696Z,8.20
2024-05-09T05:40:41.797Z,8.30
2024-05-09T05:43:15.473Z,8.30
2024-05-09T05:45:42.380Z,8.40
2024-05-09T05:48:10.016Z,8.50
2024-05-09T05:50:38.380Z,8.60
2024-05-09T05:53:08.034Z,8.70
2024-05-09T05:55:40.089Z,8.80
2024-05-09T05:58:10.932Z,8.90
2024-05-09T06:00:40.043Z,9.10
2024-05-09T06:03:09.308Z,9.20
2024-05-09T06:05:39.810Z,9.30
2024-05-09T06:08:07.695Z,9.20
2024-05-09T06:10:38.890Z,9.40
2024-05-09T06:13:10.843Z,9.50
2024-05-09T06:15:38.051Z,9.70
2024-05-09T06:18:06.490Z,9.90
2024-05-09T06:20:36.603Z,10.10
2024-05-09T06:23:09.518Z,10.20
2024-05-09T06:25:37.160Z,10.30
2024-05-09T06:28:04.600Z,10.30
2024-05-09T06:30:40.287Z,10.50
2024-05-09T06:33:11.306Z,10.60
2024-05-09T06:35:40.535Z,10.70
2024-05-09T06:38:11.011Z,10.80
2024-05-09T06:40:42.377Z,10.90
2024-05-09T06:43:15.558Z,11.00
2024-05-09T06:45:45.010Z,11.10
2024-05-09T06:48:12.120Z,11.20
2024-05-09T06:50:40.368Z,11.30
2024-05-09T06:53:08.610Z,11.40
2024-05-09T06:55:36.997Z,11.40
2024-05-09T06:58:07.602Z,11.70
2024-05-09T07:00:39.263Z,11.80
2024-05-09T07:03:18.120Z,11.80
2024-05-09T07:05:48.073Z,12.10
2024-05-09T07:08:16.375Z,12.10
2024-05-09T07:10:43.649Z,12.30
2024-05-09T07:13:11.755Z,12.40
2024-05-09T07:15:39.667Z,12.60
2024-05-09T07:18:18.480Z,12.70
2024-05-09T07:20:47.595Z,12.80
2024-05-09T07:23:15.185Z,12.80
2024-05-09T07:25:42.970Z,12.80
2024-05-09T07:28:14.108Z,13.10
2024-05-09T07:30:41.482Z,13.20
2024-05-09T07:33:08.839Z,13.20
2024-05-09T07:35:36.061Z,13.10
2024-05-09T07:38:03.142Z,13.10
2024-05-09T07:40:35.854Z,13.20
2024-05-09T07:43:08.350Z,13.40
2024-05-09T07:52:33.063Z,13.70
2024-05-09T07:55:55.868Z,14.10
2024-05-09T07:58:27.500Z,14.20
2024-05-09T08:00:54.913Z,14.30
2024-05-09T08:03:22.693Z,14.40
2024-05-09T08:05:51.400Z,14.40
2024-05-09T08:08:18.357Z,14.50
2024-05-09T08:10:45.439Z,14.60
2024-05-09T08:13:12.541Z,14.60
2024-05-09T08:15:39.676Z,14.70
2024-05-09T08:18:12.133Z,14.80
2024-05-09T08:20:40.383Z,15.00
2024-05-09T08:23:07.432Z,15.20
2024-05-09T08:25:34.312Z,15.20
2024-05-09T08:28:01.391Z,15.20
2024-05-09T08:30:33.826Z,15.30
2024-05-09T08:33:05.865Z,15.30
2024-05-09T08:35:33.857Z,15.50
2024-05-09T08:38:05.195Z,15.80
2024-05-09T08:40:36.010Z,16.00
2024-05-09T08:43:12.287Z,16.10
2024-05-09T08:45:44.042Z,16.10
2024-05-09T08:48:15.130Z,16.30
2024-05-09T08:50:43.819Z,16.10
2024-05-09T08:53:11.498Z,15.80
2024-05-09T08:55:41.783Z,15.40
2024-05-09T08:58:17.134Z,15.60
2024-05-09T09:00:46.008Z,16.00
2024-05-09T09:03:17.542Z,16.40
2024-05-09T09:06:06.347Z,16.60
2024-05-09T09:08:33.271Z,16.80
2024-05-09T09:11:00.214Z,16.50
2024-05-09T09:13:27.605Z,16.30
2024-05-09T09:15:58.233Z,16.10
2024-05-09T09:18:33.041Z,15.90
2024-05-09T09:21:00.302Z,16.00
2024-05-09T09:23:30.613Z,16.10
2024-05-09T09:26:01.193Z,16.30
2024-05-09T09:28:28.391Z,16.40
2024-05-09T09:31:01.277Z,16.50
2024-05-09T09:33:31.388Z,16.40
2024-05-09T09:35:58.488Z,16.60
2024-05-09T09:38:30.060Z,17.10
2024-05-09T09:40:57.108Z,17.30
2024-05-09T09:43:24.329Z,17.40
2024-05-09T09:45:53.360Z,17.50
2024-05-09T09:48:22.350Z,17.50
2024-05-09T09:50:51.662Z,17.40
2024-05-09T09:53:22.920Z,17.50
2024-05-09T09:55:51.960Z,17.50
2024-05-09T09:58:19.252Z,17.80
2024-05-09T10:00:46.515Z,18.30
2024-05-09T10:03:13.635Z,18.60
2024-05-09T10:05:43.968Z,18.90
2024-05-09T10:08:13.804Z,18.90
2024-05-09T10:10:46.736Z,18.50
2024-05-09T10:13:14.048Z,18.10
2024-05-09T10:15:50.871Z,17.80
2024-05-09T10:18:27.015Z,17.50
2024-05-09T10:20:56.376Z,17.50
2024-05-09T10:23:28.128Z,17.40
2024-05-09T10:26:03.242Z,17.40
2024-05-09T10:28:32.354Z,17.40
2024-05-09T10:31:10.800Z,17.30
2024-05-09T10:33:47.774Z,17.80
2024-05-09T10:36:19.375Z,17.90
2024-05-09T10:38:46.475Z,17.90
2024-05-09T10:41:13.552Z,17.70
2024-05-09T10:43:41.474Z,17.70
2024-05-09T10:46:09.177Z,17.70
2024-05-09T10:48:37.461Z,17.70
2024-05-09T10:51:05.471Z,18.10
2024-05-09T10:53:39.661Z,18.40
2024-05-09T10:56:06.701Z,18.70
2024-05-09T10:58:33.595Z,18.60
2024-05-09T11:01:02.458Z,18.50
2024-05-09T11:03:31.362Z,18.50
2024-05-09T11:05:59.088Z,18.40
2024-05-09T11:08:26.333Z,18.40
2024-05-09T11:10:54.243Z,18.40
2024-05-09T11:13:32.051Z,18.70
2024-05-09T11:16:00.063Z,19.20
2024-05-09T11:18:32.293Z,19.30
2024-05-09T11:21:02.525Z,19.60
2024-05-09T11:23:30.637Z,20.00
2024-05-09T11:25:59.127Z,20.50
2024-05-09T11:28:28.514Z,20.80
2024-05-09T11:31:07.586Z,20.80
2024-05-09T11:33:39.599Z,20.80
2024-05-09T11:36:07.895Z,20.60
2024-05-09T11:38:34.946Z,20.00
2024-05-09T11:41:05.434Z,19.90
2024-05-09T11:43:32.914Z,19.60
2024-05-09T11:46:00.381Z,19.90
2024-05-09T11:48:27.910Z,20.30
2024-05-09T11:50:55.410Z,20.40
2024-05-09T11:53:22.477Z,20.30
2024-05-09T11:55:49.621Z,20.00
2024-05-09T11:58:18.162Z,19.90
2024-05-09T12:00:46.595Z,19.90
2024-05-09T12:03:13.943Z,19.70
2024-05-09T12:05:41.328Z,20.30
2024-05-09T12:08:08.432Z,21.20
2024-05-09T12:10:36.711Z,22.00
2024-05-09T12:13:06.582Z,22.50
2024-05-09T12:15:37.755Z,22.30
2024-05-09T12:18:06.243Z,22.00
2024-05-09T12:20:37.715Z,21.50
2024-05-09T12:23:08.907Z,20.80
2024-05-09T12:25:38.225Z,20.40
2024-05-09T12:28:05.908Z,20.30
2024-05-09T12:30:37.700Z,20.90
2024-05-09T12:33:12.171Z,21.90
2024-05-09T12:35:40.342Z,22.10
2024-05-09T12:38:07.300Z,21.90
2024-05-09T12:40:37.456Z,21.80
2024-05-09T12:43:10.273Z,21.50
2024-05-09T12:45:38.722Z,22.20
2024-05-09T12:48:08.538Z,23.40
2024-05-09T12:50:36.335Z,24.40
2024-05-09T12:53:04.709Z,25.10
2024-05-09T12:55:40.633Z,25.60
2024-05-09T12:58:18.350Z,25.90
2024-05-09T13:00:46.393Z,24.90
2024-05-09T13:03:13.949Z,23.30
2024-05-09T13:05:41.532Z,22.40
2024-05-09T13:08:08.891Z,23.50
2024-05-09T13:10:36.274Z,25.40
2024-05-09T13:13:03.462Z,26.30
2024-05-09T13:15:31.469Z,27.60
2024-05-09T13:18:01.970Z,27.80
2024-05-09T13:20:34.296Z,27.80
2024-05-09T13:23:08.044Z,27.50
2024-05-09T13:25:36.542Z,27.50
2024-05-09T13:28:04.573Z,25.90
2024-05-09T13:30:39.252Z,25.70
2024-05-09T13:33:10.376Z,26.40
2024-05-09T13:35:38.267Z,27.50
2024-05-09T13:38:05.517Z,27.80
2024-05-09T13:40:35.135Z,27.90
2024-05-09T13:43:06.491Z,26.60
2024-05-09T13:45:34.154Z,24.70
2024-05-09T13:48:06.503Z,23.30
2024-05-09T13:50:36.162Z,22.30
2024-05-09T13:53:06.000Z,22.10
2024-05-09T13:55:34.132Z,22.80
2024-05-09T13:58:01.773Z,24.80
2024-05-09T14:00:41.843Z,25.80
2024-05-09T14:03:14.598Z,26.00
2024-05-09T14:05:42.108Z,26.90
2024-05-09T14:08:09.415Z,28.50
2024-05-09T14:10:43.247Z,28.30
2024-05-09T14:13:10.439Z,28.20
2024-05-09T14:15:37.703Z,28.10
2024-05-09T14:18:05.080Z,27.80
2024-05-09T14:20:32.678Z,27.20
2024-05-09T14:23:01.032Z,27.40
2024-05-09T14:25:29.956Z,28.10
2024-05-09T14:27:59.960Z,27.80
2024-05-09T14:30:34.803Z,27.60
2024-05-09T14:33:06.057Z,27.00
2024-05-09T14:35:34.024Z,26.90
2024-05-09T14:38:01.035Z,27.30
2024-05-09T14:40:38.755Z,27.80
2024-05-09T14:43:14.871Z,28.00
2024-05-09T14:45:43.398Z,28.10
2024-05-09T14:48:14.999Z,28.40
2024-05-09T14:50:42.364Z,29.80
2024-05-09T14:53:13.738Z,29.80
2024-05-09T14:55:42.991Z,29.80
2024-05-09T14:58:11.526Z,29.10
2024-05-09T15:00:47.759Z,28.50
2024-05-09T15:03:21.609Z,28.20
2024-05-09T15:05:49.826Z,28.20
2024-05-09T15:08:17.988Z,28.10
2024-05-09T15:10:45.383Z,27.90
2024-05-09T15:13:14.575Z,27.80
2024-05-09T15:15:43.412Z,27.90
2024-05-09T15:18:10.467Z,27.90
2024-05-09T15:20:38.030Z,27.80
2024-05-09T15:23:07.060Z,27.90
2024-05-09T15:25:34.831Z,27.80
2024-05-09T15:28:02.009Z,28.10
2024-05-09T15:30:32.171Z,28.30
2024-05-09T15:33:03.124Z,27.60
2024-05-09T15:35:30.313Z,27.70
2024-05-09T15:37:57.255Z,27.60
2024-05-09T15:40:31.634Z,27.70
2024-05-09T15:43:06.523Z,27.40
2024-05-09T15:45:34.469Z,27.60
2024-05-09T15:48:02.819Z,27.40
2024-05-09T15:50:37.053Z,26.70
2024-05-09T15:53:08.533Z,27.30
2024-05-09T15:55:36.420Z,27.60
2024-05-09T15:58:04.556Z,27.80
2024-05-09T16:00:37.990Z,27.80
2024-05-09T16:03:13.747Z,27.40
2024-05-09T16:05:44.411Z,26.90
2024-05-09T16:08:12.699Z,26.80
2024-05-09T16:10:44.245Z,26.80
2024-05-09T16:13:12.558Z,27.00
2024-05-09T16:15:39.832Z,26.90
2024-05-09T16:18:07.425Z,26.60
2024-05-09T16:20:39.777Z,26.40
2024-05-09T16:23:09.561Z,26.80
2024-05-09T16:25:37.079Z,26.50
2024-05-09T16:28:08.702Z,26.60
2024-05-09T16:30:38.328Z,27.00
2024-05-09T16:33:06.232Z,27.20
2024-05-09T16:35:34.852Z,27.40
2024-05-09T16:38:02.894Z,27.90
2024-05-09T16:40:37.341Z,27.80
2024-05-09T16:43:07.997Z,27.20
2024-05-09T16:45:35.629Z,27.50
2024-05-09T16:48:03.294Z,26.80
2024-05-09T16:50:33.914Z,26.40
2024-05-09T16:53:03.754Z,26.30
2024-05-09T16:55:31.177Z,25.70
2024-05-09T16:57:58.431Z,25.90
2024-05-09T17:00:35.616Z,25.80
2024-05-09T17:03:09.637Z,25.80
2024-05-09T17:05:37.348Z,25.70
2024-05-09T17:08:05.147Z,24.60
2024-05-09T17:10:34.321Z,23.50
2024-05-09T17:13:04.443Z,22.70
2024-05-09T17:15:32.893Z,21.90
2024-05-09T17:18:01.030Z,21.60
2024-05-09T17:20:33.226Z,21.10
2024-05-09T17:23:03.887Z,20.90
2024-05-09T17:25:30.948Z,20.70
2024-05-09T17:28:05.057Z,20.20
2024-05-09T17:30:36.413Z,20.10
2024-05-09T17:33:06.882Z,19.90
2024-05-09T17:35:34.845Z,19.80
2024-05-09T17:38:01.988Z,19.80
2024-05-09T17:40:33.757Z,19.60
2024-05-09T17:43:04.482Z,19.50
2024-05-09T17:45:32.429Z,19.50
2024-05-09T17:48:00.119Z,19.30
2024-05-09T17:50:34.892Z,19.20
2024-05-09T17:53:04.514Z,19.00
2024-05-09T17:55:31.655Z,18.80
2024-05-09T17:57:58.757Z,18.80
2024-05-09T18:00:36.038Z,18.80
2024-05-09T18:03:06.828Z,18.60
2024-05-09T18:05:36.189Z,18.40
2024-05-09T18:08:04.026Z,18.30
2024-05-09T18:10:36.659Z,18.20
2024-05-09T18:13:07.127Z,18.10
2024-05-09T18:15:34.607Z,17.90
2024-05-09T18:18:02.475Z,17.80
2024-05-09T18:20:39.286Z,17.60
2024-05-09T18:23:10.868Z,17.40
2024-05-09T18:25:37.878Z,17.20
2024-05-09T18:28:05.830Z,16.80
2024-05-09T18:30:35.809Z,16.40
2024-05-09T18:33:06.489Z,16.10
2024-05-09T18:35:35.011Z,15.90
2024-05-09T18:38:02.236Z,15.60
2024-05-09T18:40:34.401Z,15.40
2024-05-09T18:43:05.844Z,15.40
2024-05-09T18:45:34.244Z,15.30
2024-05-09T18:48:01.459Z,15.20
2024-05-09T18:50:35.346Z,14.80
2024-05-09T18:53:10.669Z,14.30
2024-05-09T18:55:38.504Z,13.90
2024-05-09T18:58:05.633Z,13.30
2024-05-09T19:00:36.433Z,13.30
2024-05-09T19:03:11.793Z,13.50
2024-05-09T19:05:41.668Z,13.60
2024-05-09T19:08:09.520Z,13.70
2024-05-09T19:10:38.439Z,13.60
2024-05-09T19:13:10.188Z,13.30
2024-05-09T19:15:40.251Z,13.10
2024-05-09T19:18:08.021Z,12.80
2024-05-09T19:20:36.620Z,12.70
2024-05-09T19:23:05.868Z,12.60
2024-05-09T19:25:33.383Z,12.50
2024-05-09T19:28:01.132Z,12.60
2024-05-09T19:30:37.592Z,12.70
2024-05-09T19:33:08.572Z,12.60
2024-05-09T19:35:35.997Z,12.50
2024-05-09T19:38:03.118Z,12.20
2024-05-09T19:40:32.452Z,11.90
2024-05-09T19:43:02.571Z,11.70
2024-05-09T19:45:30.352Z,11.80
2024-05-09T19:47:57.529Z,11.80
2024-05-09T19:50:32.452Z,11.60
2024-05-09T19:53:07.575Z,11.60
2024-05-09T19:55:34.857Z,11.40
2024-05-09T19:58:07.090Z,11.20
2024-05-09T20:00:39.434Z,11.20
2024-05-09T20:03:09.608Z,11.10
2024-05-09T20:05:37.763Z,11.10
2024-05-09T20:08:05.777Z,11.10
2024-05-09T20:10:35.189Z,11.20
2024-05-09T20:13:04.588Z,11.20
2024-05-09T20:15:35.125Z,11.20
2024-05-09T20:18:02.595Z,11.10
2024-05-09T20:20:37.352Z,11.00
2024-05-09T20:23:08.755Z,10.80
2024-05-09T20:25:35.858Z,10.60
2024-05-09T20:28:03.050Z,10.40
2024-05-09T20:30:32.940Z,10.40
2024-05-09T20:33:07.272Z,10.40
2024-05-09T20:35:35.613Z,10.50
2024-05-09T20:38:03.725Z,10.40
2024-05-09T20:40:35.388Z,10.30
2024-05-09T20:43:05.841Z,10.40
2024-05-09T20:45:33.528Z,10.30
2024-05-09T20:48:00.833Z,10.30
2024-05-09T20:50:36.500Z,10.30
2024-05-09T20:53:14.899Z,10.20
2024-05-09T20:55:43.856Z,10.00
2024-05-09T20:58:11.880Z,10.00
2024-05-09T21:00:42.759Z,10.00
2024-05-09T21:03:13.420Z,9.90
2024-05-09T21:05:41.549Z,9.90
2024-05-09T21:08:09.292Z,9.80
2024-05-09T21:10:37.228Z,9.80
2024-05-09T21:13:05.672Z,9.80
2024-05-09T21:15:33.618Z,9.70
2024-05-09T21:18:00.645Z,9.60
2024-05-09T21:20:31.521Z,9.50
2024-05-09T21:23:00.626Z,9.20
2024-05-09T21:25:27.720Z,9.30
2024-05-09T21:27:54.809Z,9.30
2024-05-09T21:30:32.211Z,9.30
2024-05-09T21:33:12.882Z,9.10
2024-05-09T21:35:42.535Z,9.10
2024-05-09T21:38:09.520Z,8.90
2024-05-09T21:40:37.999Z,8.90
2024-05-09T21:43:07.483Z,8.90
2024-05-09T21:45:35.944Z,8.90
2024-05-09T21:48:06.975Z,8.90
2024-05-09T21:50:39.926Z,8.80
2024-05-09T21:53:09.887Z,8.80
2024-05-09T21:55:36.889Z,8.80
2024-05-09T21:58:04.176Z,8.80
2024-05-09T22:00:36.827Z,8.90
2024-05-09T22:03:10.284Z,8.90
2024-05-09T22:05:39.214Z,9.00
2024-05-09T22:08:06.741Z,9.00
2024-05-09T22:10:35.946Z,8.90
2024-05-09T22:13:05.646Z,9.00
2024-05-09T22:15:38.169Z,9.00
2024-05-09T22:18:08.040Z,9.00
2024-05-09T22:20:38.574Z,8.90
2024-05-09T22:23:07.654Z,8.80
2024-05-09T22:25:35.157Z,8.80
2024-05-09T22:28:03.256Z,8.70
2024-05-09T22:30:36.355Z,8.60
2024-05-09T22:33:07.707Z,8.60
2024-05-09T22:35:34.852Z,8.40
2024-05-09T22:38:03.697Z,8.10
2024-05-09T22:40:39.149Z,8.10
2024-05-09T22:43:16.212Z,8.10
2024-05-09T22:45:43.196Z,8.10
2024-05-09T22:48:10.312Z,8.20
2024-05-09T22:50:37.345Z,8.10
2024-05-09T22:53:04.410Z,8.00
2024-05-09T22:55:31.290Z,7.90
2024-05-09T22:57:58.302Z,7.60
2024-05-09T23:00:31.414Z,7.70
2024-05-09T23:03:02.698Z,7.80
2024-05-09T23:05:31.869Z,7.90
2024-05-09T23:08:00.381Z,7.80
2024-05-09T23:10:32.535Z,7.90
2024-05-09T23:13:04.000Z,7.90
2024-05-09T23:15:31.094Z,7.90
2024-05-09T23:17:58.552Z,7.90
2024-05-09T23:20:35.877Z,7.90
2024-05-09T23:23:10.472Z,8.00
2024-05-09T23:25:38.712Z,8.00
2024-05-09T23:28:06.347Z,7.90
2024-05-09T23:30:38.189Z,7.90
2024-05-09T23:33:08.503Z,7.90
2024-05-09T23:35:35.780Z,7.70
2024-05-09T23:38:03.002Z,7.80
2024-05-09T23:40:38.292Z,7.80
2024-05-09T23:43:09.080Z,7.70
2024-05-09T23:45:36.505Z,7.60
2024-05-09T23:48:04.012Z,7.50
2024-05-09T23:50:35.593Z,7.40
2024-05-09T23:53:06.414Z,7.30
2024-05-09T23:55:34.154Z,7.10
2024-05-09T23:58:01.230Z,6.90
